sensor_id;sensor_type;location;lat;lon;timestamp;P1;durP1;ratioP1;P2;durP2;ratioP2
20828;SDS011;10575;50.124;8.582;2023-06-22T00:00:49;7.15;;;6.25;;
20828;SDS011;10575;50.124;8.582;2023-06-22T00:03:15;6.95;;;5.97;;
20828;SDS011;10575;50.124;8.582;2023-06-22T00:05:41;6.82;;;6.13;;
20828;SDS011;10575;50.124;8.582;2023-06-22T00:08:07;7.65;;;6.85;;
20828;SDS011;10575;50.124;8.582;2023-06-22T00:10:32;7.40;;;6.43;;
20828;SDS011;10575;50.124;8.582;2023-06-22T00:12:58;12.80;;;7.03;;
20828;SDS011;10575;50.124;8.582;2023-06-22T00:15:24;7.90;;;6.60;;
20828;SDS011;10575;50.124;8.582;2023-06-22T00:17:49;7.80;;;6.75;;
20828;SDS011;10575;50.124;8.582;2023-06-22T00:20:16;9.20;;;6.55;;
20828;SDS011;10575;50.124;8.582;2023-06-22T00:22:43;7.68;;;6.38;;
20828;SDS011;10575;50.124;8.582;2023-06-22T00:25:09;6.22;;;5.63;;
20828;SDS011;10575;50.124;8.582;2023-06-22T00:27:35;7.18;;;6.13;;
20828;SDS011;10575;50.124;8.582;2023-06-22T00:30:02;9.32;;;6.88;;
20828;SDS011;10575;50.124;8.582;2023-06-22T00:32:27;7.10;;;6.38;;
20828;SDS011;10575;50.124;8.582;2023-06-22T00:34:53;11.82;;;6.82;;
20828;SDS011;10575;50.124;8.582;2023-06-22T00:37:19;6.82;;;6.13;;
20828;SDS011;10575;50.124;8.582;2023-06-22T00:39:44;8.27;;;6.55;;
20828;SDS011;10575;50.124;8.582;2023-06-22T00:42:10;6.80;;;6.10;;
20828;SDS011;10575;50.124;8.582;2023-06-22T00:44:36;7.05;;;6.25;;
20828;SDS011;10575;50.124;8.582;2023-06-22T00:47:01;8.05;;;6.60;;
20828;SDS011;10575;50.124;8.582;2023-06-22T00:49:28;7.20;;;5.75;;
20828;SDS011;10575;50.124;8.582;2023-06-22T00:51:53;6.95;;;6.25;;
20828;SDS011;10575;50.124;8.582;2023-06-22T00:54:19;9.48;;;6.97;;
20828;SDS011;10575;50.124;8.582;2023-06-22T00:56:58;7.28;;;6.57;;
20828;SDS011;10575;50.124;8.582;2023-06-22T00:59:24;7.70;;;6.68;;
20828;SDS011;10575;50.124;8.582;2023-06-22T01:01:51;8.20;;;5.75;;
20828;SDS011;10575;50.124;8.582;2023-06-22T01:04:16;7.35;;;6.43;;
20828;SDS011;10575;50.124;8.582;2023-06-22T01:06:45;7.95;;;6.60;;
20828;SDS011;10575;50.124;8.582;2023-06-22T01:09:27;8.65;;;6.90;;
20828;SDS011;10575;50.124;8.582;2023-06-22T01:11:59;8.20;;;6.05;;
20828;SDS011;10575;50.124;8.582;2023-06-22T01:17:26;7.82;;;6.93;;
20828;SDS011;10575;50.124;8.582;2023-06-22T01:19:54;8.32;;;6.80;;
20828;SDS011;10575;50.124;8.582;2023-06-22T01:22:22;7.00;;;6.30;;
20828;SDS011;10575;50.124;8.582;2023-06-22T01:27:33;11.18;;;7.28;;
20828;SDS011;10575;50.124;8.582;2023-06-22T01:30:06;9.90;;;7.13;;
20828;SDS011;10575;50.124;8.582;2023-06-22T01:32:35;9.75;;;8.10;;
20828;SDS011;10575;50.124;8.582;2023-06-22T01:35:04;11.80;;;7.78;;
20828;SDS011;10575;50.124;8.582;2023-06-22T01:37:31;9.52;;;7.32;;
20828;SDS011;10575;50.124;8.582;2023-06-22T01:39:59;9.60;;;7.85;;
20828;SDS011;10575;50.124;8.582;2023-06-22T01:42:25;13.90;;;7.63;;
20828;SDS011;10575;50.124;8.582;2023-06-22T01:44:54;8.68;;;6.95;;
20828;SDS011;10575;50.124;8.582;2023-06-22T01:47:20;10.40;;;7.57;;
20828;SDS011;10575;50.124;8.582;2023-06-22T01:49:47;9.18;;;7.93;;
20828;SDS011;10575;50.124;8.582;2023-06-22T01:52:13;10.88;;;8.15;;
20828;SDS011;10575;50.124;8.582;2023-06-22T01:54:39;11.07;;;7.85;;
20828;SDS011;10575;50.124;8.582;2023-06-22T01:57:05;9.57;;;7.95;;
20828;SDS011;10575;50.124;8.582;2023-06-22T01:59:39;13.55;;;8.50;;
20828;SDS011;10575;50.124;8.582;2023-06-22T02:02:13;9.65;;;8.00;;
20828;SDS011;10575;50.124;8.582;2023-06-22T02:04:46;10.40;;;7.60;;
20828;SDS011;10575;50.124;8.582;2023-06-22T02:07:17;12.98;;;8.25;;
20828;SDS011;10575;50.124;8.582;2023-06-22T02:09:45;17.65;;;8.68;;
20828;SDS011;10575;50.124;8.582;2023-06-22T02:12:13;11.55;;;9.10;;
20828;SDS011;10575;50.124;8.582;2023-06-22T02:14:44;12.20;;;9.70;;
20828;SDS011;10575;50.124;8.582;2023-06-22T02:17:11;12.50;;;8.90;;
20828;SDS011;10575;50.124;8.582;2023-06-22T02:19:37;8.88;;;7.97;;
20828;SDS011;10575;50.124;8.582;2023-06-22T02:22:04;11.35;;;8.75;;
20828;SDS011;10575;50.124;8.582;2023-06-22T02:24:30;10.80;;;8.45;;
20828;SDS011;10575;50.124;8.582;2023-06-22T02:27:00;10.82;;;9.45;;
20828;SDS011;10575;50.124;8.582;2023-06-22T02:29:27;11.23;;;8.73;;
20828;SDS011;10575;50.124;8.582;2023-06-22T02:31:53;13.32;;;9.07;;
20828;SDS011;10575;50.124;8.582;2023-06-22T02:34:19;12.43;;;8.93;;
20828;SDS011;10575;50.124;8.582;2023-06-22T02:36:45;12.98;;;8.80;;
20828;SDS011;10575;50.124;8.582;2023-06-22T02:39:23;17.55;;;9.65;;
20828;SDS011;10575;50.124;8.582;2023-06-22T02:41:49;11.85;;;9.18;;
20828;SDS011;10575;50.124;8.582;2023-06-22T02:44:16;11.77;;;8.60;;
20828;SDS011;10575;50.124;8.582;2023-06-22T02:46:42;10.43;;;9.02;;
20828;SDS011;10575;50.124;8.582;2023-06-22T02:49:09;10.38;;;8.90;;
20828;SDS011;10575;50.124;8.582;2023-06-22T02:51:34;12.35;;;9.52;;
20828;SDS011;10575;50.124;8.582;2023-06-22T02:54:00;12.85;;;10.13;;
20828;SDS011;10575;50.124;8.582;2023-06-22T02:56:27;11.05;;;9.40;;
20828;SDS011;10575;50.124;8.582;2023-06-22T02:58:53;10.10;;;8.38;;
20828;SDS011;10575;50.124;8.582;2023-06-22T03:01:19;10.10;;;8.40;;
20828;SDS011;10575;50.124;8.582;2023-06-22T03:03:49;11.63;;;8.93;;
20828;SDS011;10575;50.124;8.582;2023-06-22T03:06:15;10.48;;;7.85;;
20828;SDS011;10575;50.124;8.582;2023-06-22T03:08:40;11.23;;;8.73;;
20828;SDS011;10575;50.124;8.582;2023-06-22T03:11:06;13.10;;;8.82;;
20828;SDS011;10575;50.124;8.582;2023-06-22T03:13:32;12.00;;;8.60;;
20828;SDS011;10575;50.124;8.582;2023-06-22T03:15:58;12.48;;;8.93;;
20828;SDS011;10575;50.124;8.582;2023-06-22T03:18:24;10.18;;;8.57;;
20828;SDS011;10575;50.124;8.582;2023-06-22T03:20:49;12.57;;;9.60;;
20828;SDS011;10575;50.124;8.582;2023-06-22T03:23:15;11.80;;;8.80;;
20828;SDS011;10575;50.124;8.582;2023-06-22T03:25:41;10.85;;;9.02;;
20828;SDS011;10575;50.124;8.582;2023-06-22T03:28:09;9.80;;;8.65;;
20828;SDS011;10575;50.124;8.582;2023-06-22T03:30:35;10.55;;;8.98;;
20828;SDS011;10575;50.124;8.582;2023-06-22T03:33:00;12.20;;;9.05;;
20828;SDS011;10575;50.124;8.582;2023-06-22T03:35:26;10.30;;;8.40;;
20828;SDS011;10575;50.124;8.582;2023-06-22T03:37:51;11.35;;;8.90;;
20828;SDS011;10575;50.124;8.582;2023-06-22T03:40:17;11.38;;;8.80;;
20828;SDS011;10575;50.124;8.582;2023-06-22T03:42:43;10.43;;;8.52;;
20828;SDS011;10575;50.124;8.582;2023-06-22T03:45:08;11.23;;;7.85;;
20828;SDS011;10575;50.124;8.582;2023-06-22T03:47:34;11.40;;;8.93;;
20828;SDS011;10575;50.124;8.582;2023-06-22T03:50:00;12.68;;;8.30;;
20828;SDS011;10575;50.124;8.582;2023-06-22T03:52:28;11.40;;;8.57;;
20828;SDS011;10575;50.124;8.582;2023-06-22T03:54:54;10.75;;;8.88;;
20828;SDS011;10575;50.124;8.582;2023-06-22T03:57:19;15.85;;;9.10;;
20828;SDS011;10575;50.124;8.582;2023-06-22T03:59:45;12.63;;;9.30;;
20828;SDS011;10575;50.124;8.582;2023-06-22T04:02:10;10.25;;;8.63;;
20828;SDS011;10575;50.124;8.582;2023-06-22T04:04:36;11.82;;;8.40;;
20828;SDS011;10575;50.124;8.582;2023-06-22T04:07:03;9.85;;;8.52;;
20828;SDS011;10575;50.124;8.582;2023-06-22T04:09:29;11.05;;;9.05;;
20828;SDS011;10575;50.124;8.582;2023-06-22T04:11:54;11.77;;;9.38;;
20828;SDS011;10575;50.124;8.582;2023-06-22T04:14:20;12.98;;;9.13;;
20828;SDS011;10575;50.124;8.582;2023-06-22T04:16:45;10.90;;;8.60;;
20828;SDS011;10575;50.124;8.582;2023-06-22T04:19:11;9.68;;;8.60;;
20828;SDS011;10575;50.124;8.582;2023-06-22T04:21:41;10.85;;;8.77;;
20828;SDS011;10575;50.124;8.582;2023-06-22T04:24:07;10.07;;;8.48;;
20828;SDS011;10575;50.124;8.582;2023-06-22T04:26:33;10.73;;;9.60;;
20828;SDS011;10575;50.124;8.582;2023-06-22T04:29:01;14.02;;;9.52;;
20828;SDS011;10575;50.124;8.582;2023-06-22T04:31:30;10.80;;;9.68;;
20828;SDS011;10575;50.124;8.582;2023-06-22T04:33:56;11.43;;;9.48;;
20828;SDS011;10575;50.124;8.582;2023-06-22T04:36:22;12.73;;;10.25;;
20828;SDS011;10575;50.124;8.582;2023-06-22T04:38:48;11.73;;;9.10;;
20828;SDS011;10575;50.124;8.582;2023-06-22T04:41:17;11.43;;;9.35;;
20828;SDS011;10575;50.124;8.582;2023-06-22T04:43:48;11.10;;;9.30;;
20828;SDS011;10575;50.124;8.582;2023-06-22T04:46:18;10.65;;;9.30;;
20828;SDS011;10575;50.124;8.582;2023-06-22T04:48:44;9.70;;;8.30;;
20828;SDS011;10575;50.124;8.582;2023-06-22T04:51:10;10.25;;;8.82;;
20828;SDS011;10575;50.124;8.582;2023-06-22T04:53:35;14.55;;;9.52;;
20828;SDS011;10575;50.124;8.582;2023-06-22T04:56:01;11.05;;;9.15;;
20828;SDS011;10575;50.124;8.582;2023-06-22T04:58:29;11.00;;;8.98;;
20828;SDS011;10575;50.124;8.582;2023-06-22T05:00:57;13.20;;;8.93;;
20828;SDS011;10575;50.124;8.582;2023-06-22T05:03:24;14.65;;;8.90;;
20828;SDS011;10575;50.124;8.582;2023-06-22T05:05:51;12.77;;;9.25;;
20828;SDS011;10575;50.124;8.582;2023-06-22T05:08:17;14.25;;;9.07;;
20828;SDS011;10575;50.124;8.582;2023-06-22T05:10:42;11.52;;;8.82;;
20828;SDS011;10575;50.124;8.582;2023-06-22T05:13:08;11.48;;;8.38;;
20828;SDS011;10575;50.124;8.582;2023-06-22T05:15:33;10.25;;;9.15;;
20828;SDS011;10575;50.124;8.582;2023-06-22T05:18:04;11.10;;;9.13;;
20828;SDS011;10575;50.124;8.582;2023-06-22T05:20:31;11.07;;;9.52;;
20828;SDS011;10575;50.124;8.582;2023-06-22T05:22:56;15.00;;;9.18;;
20828;SDS011;10575;50.124;8.582;2023-06-22T05:25:22;14.90;;;10.05;;
20828;SDS011;10575;50.124;8.582;2023-06-22T05:27:47;13.35;;;9.15;;
20828;SDS011;10575;50.124;8.582;2023-06-22T05:30:14;12.23;;;8.60;;
20828;SDS011;10575;50.124;8.582;2023-06-22T05:32:41;14.75;;;9.75;;
20828;SDS011;10575;50.124;8.582;2023-06-22T05:35:06;12.60;;;9.30;;
20828;SDS011;10575;50.124;8.582;2023-06-22T05:37:32;11.25;;;8.68;;
20828;SDS011;10575;50.124;8.582;2023-06-22T05:39:58;11.18;;;8.43;;
20828;SDS011;10575;50.124;8.582;2023-06-22T05:42:24;17.50;;;9.52;;
20828;SDS011;10575;50.124;8.582;2023-06-22T05:44:51;12.68;;;9.15;;
20828;SDS011;10575;50.124;8.582;2023-06-22T05:47:18;12.98;;;9.60;;
20828;SDS011;10575;50.124;8.582;2023-06-22T05:49:43;10.40;;;9.00;;
20828;SDS011;10575;50.124;8.582;2023-06-22T05:52:09;18.15;;;9.43;;
20828;SDS011;10575;50.124;8.582;2023-06-22T05:54:34;11.68;;;9.05;;
20828;SDS011;10575;50.124;8.582;2023-06-22T05:57:00;17.90;;;8.50;;
20828;SDS011;10575;50.124;8.582;2023-06-22T05:59:26;12.38;;;8.43;;
20828;SDS011;10575;50.124;8.582;2023-06-22T06:01:51;10.20;;;8.07;;
20828;SDS011;10575;50.124;8.582;2023-06-22T06:04:17;8.65;;;7.35;;
20828;SDS011;10575;50.124;8.582;2023-06-22T06:06:43;9.95;;;7.03;;
20828;SDS011;10575;50.124;8.582;2023-06-22T06:09:09;15.20;;;8.15;;
20828;SDS011;10575;50.124;8.582;2023-06-22T06:11:36;9.75;;;7.47;;
20828;SDS011;10575;50.124;8.582;2023-06-22T06:14:02;8.75;;;7.25;;
20828;SDS011;10575;50.124;8.582;2023-06-22T06:16:27;13.13;;;7.22;;
20828;SDS011;10575;50.124;8.582;2023-06-22T06:18:53;10.00;;;7.65;;
20828;SDS011;10575;50.124;8.582;2023-06-22T06:21:20;12.40;;;7.60;;
20828;SDS011;10575;50.124;8.582;2023-06-22T06:23:46;8.73;;;7.45;;
20828;SDS011;10575;50.124;8.582;2023-06-22T06:26:12;8.43;;;6.72;;
20828;SDS011;10575;50.124;8.582;2023-06-22T06:28:37;9.93;;;7.68;;
20828;SDS011;10575;50.124;8.582;2023-06-22T06:31:03;14.75;;;7.70;;
20828;SDS011;10575;50.124;8.582;2023-06-22T06:33:32;10.93;;;7.43;;
20828;SDS011;10575;50.124;8.582;2023-06-22T06:35:57;10.63;;;7.88;;
20828;SDS011;10575;50.124;8.582;2023-06-22T06:38:23;10.63;;;8.05;;
20828;SDS011;10575;50.124;8.582;2023-06-22T06:40:48;14.00;;;7.32;;
20828;SDS011;10575;50.124;8.582;2023-06-22T06:43:14;8.55;;;7.28;;
20828;SDS011;10575;50.124;8.582;2023-06-22T06:45:40;9.05;;;7.03;;
20828;SDS011;10575;50.124;8.582;2023-06-22T06:48:05;10.23;;;6.90;;
20828;SDS011;10575;50.124;8.582;2023-06-22T06:50:31;8.32;;;7.07;;
20828;SDS011;10575;50.124;8.582;2023-06-22T06:52:56;9.57;;;7.03;;
20828;SDS011;10575;50.124;8.582;2023-06-22T06:55:24;9.40;;;7.20;;
20828;SDS011;10575;50.124;8.582;2023-06-22T06:57:50;9.23;;;6.63;;
20828;SDS011;10575;50.124;8.582;2023-06-22T07:00:17;9.82;;;7.18;;
20828;SDS011;10575;50.124;8.582;2023-06-22T07:02:43;8.48;;;6.05;;
20828;SDS011;10575;50.124;8.582;2023-06-22T07:05:10;19.83;;;8.55;;
20828;SDS011;10575;50.124;8.582;2023-06-22T07:07:36;9.65;;;6.47;;
20828;SDS011;10575;50.124;8.582;2023-06-22T07:10:03;11.02;;;7.75;;
20828;SDS011;10575;50.124;8.582;2023-06-22T07:12:32;8.65;;;7.30;;
20828;SDS011;10575;50.124;8.582;2023-06-22T07:15:05;11.13;;;7.55;;
20828;SDS011;10575;50.124;8.582;2023-06-22T07:17:33;23.83;;;9.70;;
20828;SDS011;10575;50.124;8.582;2023-06-22T07:19:59;18.75;;;8.32;;
20828;SDS011;10575;50.124;8.582;2023-06-22T07:22:24;24.42;;;8.02;;
20828;SDS011;10575;50.124;8.582;2023-06-22T07:24:50;13.38;;;7.38;;
20828;SDS011;10575;50.124;8.582;2023-06-22T07:27:16;10.25;;;7.38;;
20828;SDS011;10575;50.124;8.582;2023-06-22T07:29:44;8.13;;;7.32;;
20828;SDS011;10575;50.124;8.582;2023-06-22T07:32:10;9.32;;;7.40;;
20828;SDS011;10575;50.124;8.582;2023-06-22T07:34:36;8.30;;;7.50;;
20828;SDS011;10575;50.124;8.582;2023-06-22T07:37:01;10.55;;;8.75;;
20828;SDS011;10575;50.124;8.582;2023-06-22T07:39:27;8.25;;;7.30;;
20828;SDS011;10575;50.124;8.582;2023-06-22T07:41:53;8.40;;;7.22;;
20828;SDS011;10575;50.124;8.582;2023-06-22T07:44:18;8.55;;;7.70;;
20828;SDS011;10575;50.124;8.582;2023-06-22T07:46:44;8.05;;;7.25;;
20828;SDS011;10575;50.124;8.582;2023-06-22T07:49:10;10.85;;;7.32;;
20828;SDS011;10575;50.124;8.582;2023-06-22T07:51:35;10.45;;;8.35;;
20828;SDS011;10575;50.124;8.582;2023-06-22T07:54:01;8.43;;;7.40;;
20828;SDS011;10575;50.124;8.582;2023-06-22T07:56:26;8.73;;;7.82;;
20828;SDS011;10575;50.124;8.582;2023-06-22T07:58:52;7.55;;;6.88;;
20828;SDS011;10575;50.124;8.582;2023-06-22T08:01:18;8.73;;;7.32;;
20828;SDS011;10575;50.124;8.582;2023-06-22T08:03:45;8.23;;;7.32;;
20828;SDS011;10575;50.124;8.582;2023-06-22T08:06:14;7.78;;;7.15;;
20828;SDS011;10575;50.124;8.582;2023-06-22T08:08:40;8.38;;;7.55;;
20828;SDS011;10575;50.124;8.582;2023-06-22T08:11:07;10.90;;;6.78;;
20828;SDS011;10575;50.124;8.582;2023-06-22T08:13:33;7.22;;;6.63;;
20828;SDS011;10575;50.124;8.582;2023-06-22T08:15:59;8.57;;;7.68;;
20828;SDS011;10575;50.124;8.582;2023-06-22T08:18:24;7.95;;;6.93;;
20828;SDS011;10575;50.124;8.582;2023-06-22T08:20:50;8.55;;;6.90;;
20828;SDS011;10575;50.124;8.582;2023-06-22T08:23:16;7.95;;;7.07;;
20828;SDS011;10575;50.124;8.582;2023-06-22T08:25:43;8.30;;;7.50;;
20828;SDS011;10575;50.124;8.582;2023-06-22T08:28:09;7.90;;;6.65;;
20828;SDS011;10575;50.124;8.582;2023-06-22T08:30:35;7.93;;;6.50;;
20828;SDS011;10575;50.124;8.582;2023-06-22T08:33:00;7.53;;;6.53;;
20828;SDS011;10575;50.124;8.582;2023-06-22T08:35:25;10.15;;;6.82;;
20828;SDS011;10575;50.124;8.582;2023-06-22T08:37:51;6.53;;;6.03;;
20828;SDS011;10575;50.124;8.582;2023-06-22T08:40:19;8.43;;;6.20;;
20828;SDS011;10575;50.124;8.582;2023-06-22T08:42:46;7.72;;;6.65;;
20828;SDS011;10575;50.124;8.582;2023-06-22T08:45:12;6.68;;;6.13;;
20828;SDS011;10575;50.124;8.582;2023-06-22T08:47:38;6.22;;;5.50;;
20828;SDS011;10575;50.124;8.582;2023-06-22T08:50:06;8.05;;;6.63;;
20828;SDS011;10575;50.124;8.582;2023-06-22T08:52:33;9.52;;;7.18;;
20828;SDS011;10575;50.124;8.582;2023-06-22T08:54:59;7.40;;;6.80;;
20828;SDS011;10575;50.124;8.582;2023-06-22T08:57:25;6.68;;;5.65;;
20828;SDS011;10575;50.124;8.582;2023-06-22T08:59:50;6.90;;;6.35;;
20828;SDS011;10575;50.124;8.582;2023-06-22T09:02:23;6.05;;;5.55;;
20828;SDS011;10575;50.124;8.582;2023-06-22T09:04:48;8.18;;;6.07;;
20828;SDS011;10575;50.124;8.582;2023-06-22T09:07:20;7.13;;;6.40;;
20828;SDS011;10575;50.124;8.582;2023-06-22T09:09:47;6.90;;;6.22;;
20828;SDS011;10575;50.124;8.582;2023-06-22T09:12:13;8.45;;;7.57;;
20828;SDS011;10575;50.124;8.582;2023-06-22T09:14:39;8.30;;;7.43;;
20828;SDS011;10575;50.124;8.582;2023-06-22T09:17:05;8.45;;;7.75;;
20828;SDS011;10575;50.124;8.582;2023-06-22T09:19:30;8.73;;;7.82;;
20828;SDS011;10575;50.124;8.582;2023-06-22T09:21:56;9.45;;;8.52;;
20828;SDS011;10575;50.124;8.582;2023-06-22T09:24:22;8.73;;;7.93;;
20828;SDS011;10575;50.124;8.582;2023-06-22T09:26:47;10.05;;;8.18;;
20828;SDS011;10575;50.124;8.582;2023-06-22T09:29:13;10.40;;;9.10;;
20828;SDS011;10575;50.124;8.582;2023-06-22T09:31:38;9.95;;;8.93;;
20828;SDS011;10575;50.124;8.582;2023-06-22T09:34:04;9.20;;;8.30;;
20828;SDS011;10575;50.124;8.582;2023-06-22T09:36:30;9.93;;;8.93;;
20828;SDS011;10575;50.124;8.582;2023-06-22T09:38:55;10.38;;;9.30;;
20828;SDS011;10575;50.124;8.582;2023-06-22T09:41:23;9.10;;;8.32;;
20828;SDS011;10575;50.124;8.582;2023-06-22T09:43:49;11.60;;;9.65;;
20828;SDS011;10575;50.124;8.582;2023-06-22T09:46:15;9.65;;;8.85;;
20828;SDS011;10575;50.124;8.582;2023-06-22T09:48:42;11.20;;;9.13;;
20828;SDS011;10575;50.124;8.582;2023-06-22T09:51:07;10.60;;;9.57;;
20828;SDS011;10575;50.124;8.582;2023-06-22T09:53:33;9.90;;;8.73;;
20828;SDS011;10575;50.124;8.582;2023-06-22T09:55:59;12.85;;;9.27;;
20828;SDS011;10575;50.124;8.582;2023-06-22T09:58:26;9.65;;;8.60;;
20828;SDS011;10575;50.124;8.582;2023-06-22T10:00:51;11.27;;;8.75;;
20828;SDS011;10575;50.124;8.582;2023-06-22T10:03:18;9.27;;;8.38;;
20828;SDS011;10575;50.124;8.582;2023-06-22T10:05:43;9.52;;;8.55;;
20828;SDS011;10575;50.124;8.582;2023-06-22T10:08:10;10.45;;;8.23;;
20828;SDS011;10575;50.124;8.582;2023-06-22T10:10:35;9.85;;;8.82;;
20828;SDS011;10575;50.124;8.582;2023-06-22T10:13:08;10.93;;;9.02;;
20828;SDS011;10575;50.124;8.582;2023-06-22T10:15:35;11.32;;;9.18;;
20828;SDS011;10575;50.124;8.582;2023-06-22T10:18:01;9.02;;;8.18;;
20828;SDS011;10575;50.124;8.582;2023-06-22T10:20:26;16.77;;;9.98;;
20828;SDS011;10575;50.124;8.582;2023-06-22T10:22:53;13.73;;;8.93;;
20828;SDS011;10575;50.124;8.582;2023-06-22T10:25:19;9.05;;;8.23;;
20828;SDS011;10575;50.124;8.582;2023-06-22T10:27:45;8.95;;;7.93;;
20828;SDS011;10575;50.124;8.582;2023-06-22T10:30:11;11.48;;;8.65;;
20828;SDS011;10575;50.124;8.582;2023-06-22T10:32:37;8.77;;;7.97;;
20828;SDS011;10575;50.124;8.582;2023-06-22T10:35:04;9.68;;;8.50;;
20828;SDS011;10575;50.124;8.582;2023-06-22T10:37:30;8.20;;;7.38;;
20828;SDS011;10575;50.124;8.582;2023-06-22T10:39:56;9.32;;;7.28;;
20828;SDS011;10575;50.124;8.582;2023-06-22T10:42:21;9.18;;;7.35;;
20828;SDS011;10575;50.124;8.582;2023-06-22T10:44:47;8.73;;;6.95;;
20828;SDS011;10575;50.124;8.582;2023-06-22T10:47:13;10.15;;;7.10;;
20828;SDS011;10575;50.124;8.582;2023-06-22T10:49:38;7.90;;;7.18;;
20828;SDS011;10575;50.124;8.582;2023-06-22T10:52:05;8.18;;;7.38;;
20828;SDS011;10575;50.124;8.582;2023-06-22T10:54:32;10.40;;;7.32;;
20828;SDS011;10575;50.124;8.582;2023-06-22T10:56:59;10.75;;;7.45;;
20828;SDS011;10575;50.124;8.582;2023-06-22T10:59:24;9.35;;;8.27;;
20828;SDS011;10575;50.124;8.582;2023-06-22T11:01:51;7.55;;;6.85;;
20828;SDS011;10575;50.124;8.582;2023-06-22T11:04:17;9.35;;;7.18;;
20828;SDS011;10575;50.124;8.582;2023-06-22T11:06:42;7.93;;;7.10;;
20828;SDS011;10575;50.124;8.582;2023-06-22T11:09:08;8.82;;;7.65;;
20828;SDS011;10575;50.124;8.582;2023-06-22T11:11:34;8.23;;;7.43;;
20828;SDS011;10575;50.124;8.582;2023-06-22T11:13:59;7.38;;;6.68;;
20828;SDS011;10575;50.124;8.582;2023-06-22T11:16:25;8.55;;;7.00;;
20828;SDS011;10575;50.124;8.582;2023-06-22T11:18:51;7.82;;;6.93;;
20828;SDS011;10575;50.124;8.582;2023-06-22T11:21:30;9.15;;;7.18;;
20828;SDS011;10575;50.124;8.582;2023-06-22T11:24:03;12.55;;;7.55;;
20828;SDS011;10575;50.124;8.582;2023-06-22T11:26:29;7.55;;;6.72;;
20828;SDS011;10575;50.124;8.582;2023-06-22T11:28:56;10.50;;;7.78;;
20828;SDS011;10575;50.124;8.582;2023-06-22T11:31:22;8.88;;;7.57;;
20828;SDS011;10575;50.124;8.582;2023-06-22T11:33:48;8.07;;;7.28;;
20828;SDS011;10575;50.124;8.582;2023-06-22T11:36:13;8.85;;;7.78;;
20828;SDS011;10575;50.124;8.582;2023-06-22T11:38:40;10.05;;;7.30;;
20828;SDS011;10575;50.124;8.582;2023-06-22T11:41:06;13.18;;;9.25;;
20828;SDS011;10575;50.124;8.582;2023-06-22T11:43:32;9.70;;;8.70;;
20828;SDS011;10575;50.124;8.582;2023-06-22T11:45:58;10.73;;;8.30;;
20828;SDS011;10575;50.124;8.582;2023-06-22T11:48:24;9.65;;;7.80;;
20828;SDS011;10575;50.124;8.582;2023-06-22T11:50:50;9.88;;;7.80;;
20828;SDS011;10575;50.124;8.582;2023-06-22T11:53:16;8.95;;;7.82;;
20828;SDS011;10575;50.124;8.582;2023-06-22T11:55:42;8.57;;;7.70;;
20828;SDS011;10575;50.124;8.582;2023-06-22T11:58:08;10.35;;;7.45;;
20828;SDS011;10575;50.124;8.582;2023-06-22T12:00:34;11.57;;;7.90;;
20828;SDS011;10575;50.124;8.582;2023-06-22T12:02:59;8.90;;;7.55;;
20828;SDS011;10575;50.124;8.582;2023-06-22T12:05:25;9.75;;;7.68;;
20828;SDS011;10575;50.124;8.582;2023-06-22T12:07:52;12.45;;;8.13;;
20828;SDS011;10575;50.124;8.582;2023-06-22T12:10:19;9.32;;;7.93;;
20828;SDS011;10575;50.124;8.582;2023-06-22T12:12:44;9.60;;;7.85;;
20828;SDS011;10575;50.124;8.582;2023-06-22T12:15:10;14.27;;;8.40;;
20828;SDS011;10575;50.124;8.582;2023-06-22T12:17:35;8.57;;;7.68;;
20828;SDS011;10575;50.124;8.582;2023-06-22T12:20:01;11.38;;;8.30;;
20828;SDS011;10575;50.124;8.582;2023-06-22T12:22:30;10.93;;;8.40;;
20828;SDS011;10575;50.124;8.582;2023-06-22T12:24:56;9.57;;;7.50;;
20828;SDS011;10575;50.124;8.582;2023-06-22T12:27:22;12.93;;;7.53;;
20828;SDS011;10575;50.124;8.582;2023-06-22T12:29:47;11.73;;;7.55;;
20828;SDS011;10575;50.124;8.582;2023-06-22T12:32:13;11.65;;;7.70;;
20828;SDS011;10575;50.124;8.582;2023-06-22T12:34:39;9.68;;;7.60;;
20828;SDS011;10575;50.124;8.582;2023-06-22T12:37:06;12.13;;;7.60;;
20828;SDS011;10575;50.124;8.582;2023-06-22T12:39:32;13.98;;;9.02;;
20828;SDS011;10575;50.124;8.582;2023-06-22T12:41:58;9.02;;;8.13;;
20828;SDS011;10575;50.124;8.582;2023-06-22T12:44:23;13.40;;;7.07;;
20828;SDS011;10575;50.124;8.582;2023-06-22T12:46:49;12.68;;;7.75;;
20828;SDS011;10575;50.124;8.582;2023-06-22T12:49:14;10.27;;;7.82;;
20828;SDS011;10575;50.124;8.582;2023-06-22T12:51:40;11.80;;;9.07;;
20828;SDS011;10575;50.124;8.582;2023-06-22T12:54:09;13.65;;;7.90;;
20828;SDS011;10575;50.124;8.582;2023-06-22T12:56:39;10.75;;;8.00;;
20828;SDS011;10575;50.124;8.582;2023-06-22T12:59:05;15.77;;;8.20;;
20828;SDS011;10575;50.124;8.582;2023-06-22T13:01:31;13.25;;;7.80;;
20828;SDS011;10575;50.124;8.582;2023-06-22T13:03:57;11.30;;;7.57;;
20828;SDS011;10575;50.124;8.582;2023-06-22T13:06:23;15.60;;;8.55;;
20828;SDS011;10575;50.124;8.582;2023-06-22T13:08:49;14.27;;;8.13;;
20828;SDS011;10575;50.124;8.582;2023-06-22T13:11:14;13.20;;;8.13;;
20828;SDS011;10575;50.124;8.582;2023-06-22T13:13:40;11.88;;;8.45;;
20828;SDS011;10575;50.124;8.582;2023-06-22T13:16:06;13.32;;;8.27;;
20828;SDS011;10575;50.124;8.582;2023-06-22T13:18:32;10.75;;;8.13;;
20828;SDS011;10575;50.124;8.582;2023-06-22T13:21:00;13.77;;;8.38;;
20828;SDS011;10575;50.124;8.582;2023-06-22T13:23:29;10.57;;;7.65;;
20828;SDS011;10575;50.124;8.582;2023-06-22T13:25:55;13.10;;;7.60;;
20828;SDS011;10575;50.124;8.582;2023-06-22T13:28:21;12.43;;;7.90;;
20828;SDS011;10575;50.124;8.582;2023-06-22T13:30:47;9.07;;;8.05;;
20828;SDS011;10575;50.124;8.582;2023-06-22T13:33:13;12.75;;;8.30;;
20828;SDS011;10575;50.124;8.582;2023-06-22T13:35:39;13.63;;;8.05;;
20828;SDS011;10575;50.124;8.582;2023-06-22T13:38:07;15.55;;;9.02;;
20828;SDS011;10575;50.124;8.582;2023-06-22T13:40:34;11.98;;;8.30;;
20828;SDS011;10575;50.124;8.582;2023-06-22T13:43:06;14.98;;;8.20;;
20828;SDS011;10575;50.124;8.582;2023-06-22T13:45:32;11.95;;;7.95;;
20828;SDS011;10575;50.124;8.582;2023-06-22T13:48:14;12.27;;;7.47;;
20828;SDS011;10575;50.124;8.582;2023-06-22T13:50:43;11.20;;;7.90;;
20828;SDS011;10575;50.124;8.582;2023-06-22T13:53:08;12.00;;;8.68;;
20828;SDS011;10575;50.124;8.582;2023-06-22T13:55:34;11.20;;;8.77;;
20828;SDS011;10575;50.124;8.582;2023-06-22T13:57:59;12.15;;;7.82;;
20828;SDS011;10575;50.124;8.582;2023-06-22T14:00:25;12.90;;;8.00;;
20828;SDS011;10575;50.124;8.582;2023-06-22T14:02:52;11.18;;;7.80;;
20828;SDS011;10575;50.124;8.582;2023-06-22T14:05:18;13.30;;;7.93;;
20828;SDS011;10575;50.124;8.582;2023-06-22T14:07:44;10.93;;;7.97;;
20828;SDS011;10575;50.124;8.582;2023-06-22T14:10:10;15.88;;;9.07;;
20828;SDS011;10575;50.124;8.582;2023-06-22T14:12:35;16.45;;;9.38;;
20828;SDS011;10575;50.124;8.582;2023-06-22T14:15:01;10.60;;;7.95;;
20828;SDS011;10575;50.124;8.582;2023-06-22T14:17:26;15.43;;;8.13;;
20828;SDS011;10575;50.124;8.582;2023-06-22T14:19:52;13.43;;;7.75;;
20828;SDS011;10575;50.124;8.582;2023-06-22T14:22:18;10.50;;;7.63;;
20828;SDS011;10575;50.124;8.582;2023-06-22T14:24:47;11.18;;;8.73;;
20828;SDS011;10575;50.124;8.582;2023-06-22T14:27:13;13.85;;;7.97;;
20828;SDS011;10575;50.124;8.582;2023-06-22T14:29:39;14.85;;;8.35;;
20828;SDS011;10575;50.124;8.582;2023-06-22T14:32:05;12.65;;;7.43;;
20828;SDS011;10575;50.124;8.582;2023-06-22T14:34:35;11.38;;;6.60;;
20828;SDS011;10575;50.124;8.582;2023-06-22T14:37:06;12.35;;;6.57;;
20828;SDS011;10575;50.124;8.582;2023-06-22T14:39:32;16.23;;;6.05;;
20828;SDS011;10575;50.124;8.582;2023-06-22T14:41:58;10.45;;;5.22;;